Time;durP1;ratioP1;P1;durP2;ratioP2;P2;SDS_P1;SDS_P2;PMS_P1;PMS_P2;Temp;Humidity;BMP_temperature;BMP_pressure;BME280_temperature;BME280_humidity;BME280_pressure;Samples;Min_cycle;Max_cycle;Signal;HPM_P1;HPM_P2
2022/04/18 04:11:52;;;;;;;7.43;4.95;;;;;;;4.93;77.99;101252.41;5115619;27;969602;-83
2022/04/18 04:14:18;;;;;;;8.05;5.32;;;;;;;4.95;78.46;101248.09;5145804;27;20039;-82
2022/04/18 04:16:44;;;;;;;10.63;6.15;;;;;;;5.10;78.49;101254.69;5113639;27;20075;-83
2022/04/18 04:19:09;;;;;;;11.20;6.35;;;;;;;5.24;76.95;101257.88;5112918;27;20042;-92
2022/04/18 04:21:37;;;;;;;21.15;9.18;;;;;;;5.38;76.95;101261.03;5113620;27;20079;-86
2022/04/18 04:24:03;;;;;;;45.17;17.67;;;;;;;5.50;75.70;101259.97;5097541;27;20411;-86
2022/04/18 04:26:29;;;;;;;34.97;16.52;;;;;;;5.50;75.45;101254.00;5107811;28;20114;-85
2022/04/18 04:28:54;;;;;;;34.55;16.00;;;;;;;5.56;75.69;101243.63;5109692;28;20114;-82
2022/04/18 04:31:20;;;;;;;32.25;15.48;;;;;;;5.47;76.38;101230.09;5128523;28;20027;-83
2022/04/18 04:33:45;;;;;;;31.67;14.73;;;;;;;5.70;76.04;101257.03;5111214;28;20024;-82
2022/04/18 04:36:15;;;;;;;14.30;7.80;;;;;;;5.58;75.21;101231.59;5108952;27;20549;-81
2022/04/18 04:38:41;;;;;;;8.25;4.95;;;;;;;5.68;75.26;101245.97;5130476;27;20496;-81
2022/04/18 04:41:06;;;;;;;8.52;5.28;;;;;;;5.84;74.46;101259.38;5113298;27;20023;-85
2022/04/18 04:43:32;;;;;;;11.85;5.78;;;;;;;5.85;74.63;101261.91;5112492;27;20023;-83
2022/04/18 04:46:00;;;;;;;6.85;4.60;;;;;;;5.81;74.85;101247.44;5112453;27;20023;-84
2022/04/18 04:48:25;;;;;;;7.55;4.90;;;;;;;5.82;74.42;101238.03;5129430;27;20329;-85
2022/04/18 04:50:51;;;;;;;8.65;5.70;;;;;;;5.93;74.17;101236.94;5112320;27;20029;-93
2022/04/18 04:53:16;;;;;;;8.98;6.20;;;;;;;6.02;74.10;101244.47;5130349;27;20027;-86
2022/04/18 04:55:42;;;;;;;6.43;4.13;;;;;;;6.03;73.51;101242.75;5130653;27;20027;-90
2022/04/18 04:58:11;;;;;;;6.03;4.15;;;;;;;6.04;73.66;101240.16;5113032;27;20031;-83
2022/04/18 05:00:37;;;;;;;6.32;4.00;;;;;;;6.13;73.21;101251.13;5124473;27;20113;-83
2022/04/18 05:03:03;;;;;;;4.88;2.97;;;;;;;6.08;72.50;101242.66;5113756;28;20027;-86
2022/04/18 05:05:28;;;;;;;4.60;2.67;;;;;;;5.92;71.02;101217.28;5109860;28;20031;-89
2022/04/18 05:07:55;;;;;;;3.60;2.55;;;;;;;6.17;71.38;101247.59;5121389;27;20027;-91
2022/04/18 05:10:21;;;;;;;4.57;2.85;;;;;;;6.07;71.35;101236.66;5096950;27;20054;-86
2022/04/18 05:12:47;;;;;;;6.68;4.43;;;;;;;6.18;72.86;101218.44;5111992;27;20488;-87
2022/04/18 05:15:12;;;;;;;9.40;5.00;;;;;;;6.26;71.93;101244.84;5128544;27;20079;-81
2022/04/18 05:17:38;;;;;;;13.38;7.15;;;;;;;6.27;72.03;101249.09;5148204;27;20038;-93
2022/04/18 05:20:04;;;;;;;22.10;11.98;;;;;;;6.31;72.96;101250.75;5113581;27;20408;-90
2022/04/18 05:22:30;;;;;;;17.23;9.00;;;;;;;6.08;72.49;101211.81;5103540;27;20102;-86
2022/04/18 05:24:56;;;;;;;8.65;5.60;;;;;;;6.42;70.88;101247.94;5112625;28;20024;-91
2022/04/18 05:27:22;;;;;;;17.00;8.52;;;;;;;6.49;70.62;101247.78;5115382;27;20499;-94
2022/04/18 05:29:47;;;;;;;22.27;10.88;;;;;;;6.50;70.64;101246.88;5082580;27;20024;-84
2022/04/18 05:32:13;;;;;;;19.35;10.23;;;;;;;6.47;71.25;101244.38;5098268;27;20473;-86
2022/04/18 05:34:39;;;;;;;16.20;9.02;;;;;;;6.54;70.81;101255.38;5099012;27;20472;-87
2022/04/18 05:37:04;;;;;;;15.57;9.00;;;;;;;6.58;71.17;101249.25;5097779;27;20031;-83
2022/04/18 05:39:30;;;;;;;15.95;9.00;;;;;;;6.61;70.92;101254.38;5076766;28;20118;-88
2022/04/18 05:41:58;;;;;;;12.82;7.95;;;;;;;6.63;69.86;101250.03;5087730;27;20035;-85
2022/04/18 05:44:24;;;;;;;14.40;9.45;;;;;;;6.67;69.70;101243.06;5081597;27;20042;-86
2022/04/18 05:46:49;;;;;;;15.82;9.00;;;;;;;6.75;69.16;101254.88;5114565;27;20488;-83
2022/04/18 05:49:15;;;;;;;20.58;15.20;;;;;;;6.71;69.03;101249.84;5115707;27;20027;-85
2022/04/18 05:51:41;;;;;;;13.90;8.98;;;;;;;6.78;69.67;101253.94;5132678;27;20027;-85
2022/04/18 05:54:06;;;;;;;13.80;8.45;;;;;;;6.77;69.75;101259.97;5098244;27;20023;-89
2022/04/18 05:56:32;;;;;;;12.85;7.53;;;;;;;6.78;69.39;101261.66;5082190;27;20031;-88
2022/04/18 05:58:57;;;;;;;14.93;9.43;;;;;;;6.76;70.60;101242.88;5079649;27;20035;-90
2022/04/18 06:01:23;;;;;;;9.90;7.03;;;;;;;6.74;69.21;101242.06;5098780;27;20519;-93
2022/04/18 06:03:48;;;;;;;10.43;7.78;;;;;;;6.82;71.34;101255.59;5100576;27;20035;-88
2022/04/18 06:06:14;;;;;;;9.88;6.80;;;;;;;7.04;71.20;101258.50;5081750;27;20051;-92
2022/04/18 06:08:40;;;;;;;8.15;5.78;;;;;;;6.99;70.81;101250.06;5094393;28;20059;-89
2022/04/18 06:11:05;;;;;;;7.63;5.80;;;;;;;7.10;70.30;101258.34;5103429;27;20474;-90
2022/04/18 06:13:31;;;;;;;6.25;4.70;;;;;;;7.08;69.49;101248.09;5094847;28;20028;-85
2022/04/18 06:15:57;;;;;;;6.88;4.85;;;;;;;7.22;71.07;101252.06;5112270;27;20065;-84
2022/04/18 06:18:22;;;;;;;7.72;5.13;;;;;;;7.38;68.86;101261.94;5097601;27;20515;-85
2022/04/18 06:20:48;;;;;;;7.32;5.13;;;;;;;7.33;69.12;101242.31;5113998;27;20027;-86
2022/04/18 06:23:17;;;;;;;7.03;4.90;;;;;;;7.33;69.04;101243.16;5097077;27;20035;-87
2022/04/18 06:25:43;;;;;;;7.45;5.35;;;;;;;7.69;69.52;101266.28;5093679;28;20020;-86
2022/04/18 06:28:08;;;;;;;6.80;4.65;;;;;;;7.83;66.57;101256.44;5092345;28;20102;-87
2022/04/18 06:30:34;;;;;;;7.00;4.68;;;;;;;7.76;65.64;101255.75;5112126;28;20138;-87
2022/04/18 06:32:59;;;;;;;4.85;3.63;;;;;;;7.84;65.32;101249.56;5097088;28;20027;-81
2022/04/18 06:35:25;;;;;;;20.05;15.00;;;;;;;8.00;63.40;101256.81;5112675;27;20019;-87
2022/04/18 06:37:50;;;;;;;10.63;8.43;;;;;;;7.99;63.89;101264.59;5097350;27;20027;-84
2022/04/18 06:40:16;;;;;;;9.18;5.22;;;;;;;7.87;65.87;101258.06;5095639;27;20138;-89
2022/04/18 06:42:41;;;;;;;4.93;3.78;;;;;;;7.98;65.53;101265.47;5114145;27;20061;-91
2022/04/18 06:45:07;;;;;;;11.88;7.13;;;;;;;8.18;64.82;101258.03;5080714;27;20058;-88
2022/04/18 06:47:33;;;;;;;8.20;4.22;;;;;;;8.31;63.81;101259.34;5093096;28;20030;-91
2022/04/18 06:49:58;;;;;;;6.28;3.97;;;;;;;8.25;64.58;101264.69;5093511;28;20103;-90
2022/04/18 06:52:24;;;;;;;6.03;3.88;;;;;;;8.52;64.04;101254.47;5096625;27;20069;-85
2022/04/18 06:54:49;;;;;;;9.02;4.80;;;;;;;8.46;63.34;101234.06;5131523;27;20020;-89
2022/04/18 06:57:16;;;;;;;5.55;4.10;;;;;;;8.70;62.23;101253.91;5114339;27;20077;-89
2022/04/18 06:59:41;;;;;;;7.80;4.15;;;;;;;8.74;62.22;101258.06;5112885;27;20538;-85
2022/04/18 07:02:07;;;;;;;5.38;4.20;;;;;;;8.78;62.61;101261.41;5113275;27;20055;-85
2022/04/18 07:04:32;;;;;;;5.10;3.42;;;;;;;8.61;61.22;101231.81;5096859;27;20540;-85
2022/04/18 07:06:58;;;;;;;4.93;3.60;;;;;;;8.41;62.50;101257.38;5131489;27;20029;-83
2022/04/18 07:09:24;;;;;;;16.83;8.88;;;;;;;8.23;62.67;101234.69;5096228;27;20503;-83
2022/04/18 07:11:49;;;;;;;4.82;3.55;;;;;;;8.38;61.90;101249.75;5096195;27;20055;-84
2022/04/18 07:14:15;;;;;;;7.40;4.43;;;;;;;8.49;61.29;101250.25;5112582;27;20023;-82
2022/04/18 07:16:41;;;;;;;7.30;3.80;;;;;;;8.43;61.90;101241.84;5113052;27;20424;-82
2022/04/18 07:19:07;;;;;;;6.13;4.38;;;;;;;8.61;62.62;101249.88;5113747;27;20046;-87
2022/04/18 07:21:32;;;;;;;5.75;4.18;;;;;;;8.68;62.96;101236.81;5096579;27;20498;-88
2022/04/18 07:23:58;;;;;;;8.88;5.00;;;;;;;9.01;62.65;101255.53;5095822;27;20075;-85
2022/04/18 07:26:23;;;;;;;5.20;4.10;;;;;;;8.85;61.06;101256.03;5095306;27;20408;-90
2022/04/18 07:28:49;;;;;;;6.03;4.55;;;;;;;8.90;61.50;101238.66;5094532;28;20117;-87
2022/04/18 07:31:14;;;;;;;8.25;4.53;;;;;;;9.02;61.12;101252.03;5079962;28;20032;-90
2022/04/18 07:33:40;;;;;;;5.60;4.53;;;;;;;8.84;61.03;101254.31;5078309;28;20028;-88
2022/04/18 07:36:06;;;;;;;5.82;4.13;;;;;;;9.09;60.49;101258.69;5095701;27;20035;-90
2022/04/18 07:38:49;;;;;;;6.05;4.45;;;;;;;9.08;60.74;101251.84;5097841;27;20031;-92
2022/04/18 07:41:23;;;;;;;5.88;4.50;;;;;;;8.85;60.93;101250.88;5082371;28;20038;-89
2022/04/18 07:43:49;;;;;;;5.57;4.65;;;;;;;8.51;60.77;101245.06;5060409;28;20023;-84
2022/04/18 07:46:15;;;;;;;7.90;4.50;;;;;;;8.41;61.51;101246.22;5074649;28;20024;-82
2022/04/18 07:48:40;;;;;;;5.40;4.07;;;;;;;8.42;61.88;101242.75;5123682;27;20598;-83
2022/04/18 07:53:50;;;;;;;4.88;3.67;;;;;;;8.77;58.45;101242.53;5099429;27;20107;-86
2022/04/18 07:56:15;;;;;;;5.00;3.80;;;;;;;9.01;57.68;101255.53;5077758;27;20480;-94
2022/04/18 07:58:41;;;;;;;4.68;3.78;;;;;;;8.95;60.85;101217.00;5076618;27;20552;-85
2022/04/18 08:01:06;;;;;;;6.10;4.05;;;;;;;9.38;58.94;101250.84;5110377;27;20539;-89
2022/04/18 08:03:35;;;;;;;4.60;3.60;;;;;;;9.41;58.14;101253.28;5111194;28;20023;-88
2022/04/18 08:06:01;;;;;;;5.05;3.85;;;;;;;9.36;56.90;101252.63;5097104;28;20028;-90
2022/04/18 08:08:26;;;;;;;5.53;3.42;;;;;;;9.10;56.69;101245.75;5096842;28;20094;-91
2022/04/18 08:10:52;;;;;;;4.72;3.20;;;;;;;8.81;56.51;101245.84;5093825;28;20043;-87
2022/04/18 08:13:17;;;;;;;5.47;3.58;;;;;;;8.78;58.35;101254.53;5108115;28;20400;-84
2022/04/18 08:15:43;;;;;;;5.10;3.88;;;;;;;8.86;58.50;101242.22;5107862;28;20043;-85
2022/04/18 08:18:08;;;;;;;5.10;3.88;;;;;;;8.84;57.91;101236.25;5091336;28;20080;-84
2022/04/18 08:20:34;;;;;;;4.53;3.35;;;;;;;8.98;57.73;101234.97;5090862;28;20042;-84
2022/04/18 08:22:59;;;;;;;5.65;3.90;;;;;;;8.86;58.12;101231.91;5108875;28;20340;-89
2022/04/18 08:25:26;;;;;;;4.97;3.75;;;;;;;9.01;59.09;101240.03;5108133;28;20027;-88
2022/04/18 08:27:51;;;;;;;4.93;3.55;;;;;;;9.10;58.54;101232.00;5109964;28;20069;-90
2022/04/18 08:30:17;;;;;;;5.35;3.83;;;;;;;9.18;59.61;101237.75;5092296;28;20031;-89
2022/04/18 08:32:42;;;;;;;5.10;3.95;;;;;;;9.16;58.76;101239.53;5092652;28;20038;-92
2022/04/18 08:35:08;;;;;;;5.45;4.10;;;;;;;9.20;59.73;101226.47;5092516;28;20085;-85
2022/04/18 08:37:34;;;;;;;5.97;3.80;;;;;;;9.35;56.70;101243.19;5087581;28;20073;-89
2022/04/18 08:40:01;;;;;;;8.07;3.83;;;;;;;9.18;57.30;101222.25;5080373;28;20032;-86
2022/04/18 08:42:26;;;;;;;5.60;3.70;;;;;;;9.27;55.80;101237.44;5106210;28;20027;-91
2022/04/18 08:44:53;;;;;;;5.25;3.83;;;;;;;9.09;55.92;101222.56;5091360;28;20343;-85
2022/04/18 08:52:47;;;;;;;5.05;3.65;;;;;;;9.28;55.45;101221.06;5083692;28;20108;-87
2022/04/18 08:55:13;;;;;;;5.00;3.60;;;;;;;9.30;54.19;101219.25;5088244;28;20414;-84
2022/04/18 08:57:39;;;;;;;5.32;3.60;;;;;;;9.35;53.69;101213.94;5090987;28;20039;-90
2022/04/18 09:00:06;;;;;;;4.85;3.40;;;;;;;9.22;52.91;101210.91;5095306;28;20050;-86
2022/04/18 09:02:32;;;;;;;5.43;3.78;;;;;;;9.36;54.55;101220.78;5095713;28;20153;-86
2022/04/18 09:04:57;;;;;;;7.18;5.15;;;;;;;9.42;53.33;101216.25;5111920;28;20094;-84
2022/04/18 09:07:23;;;;;;;7.30;4.13;;;;;;;9.32;54.98;101214.88;5113539;28;20027;-87
2022/04/18 09:09:54;;;;;;;6.30;3.72;;;;;;;9.35;54.50;101209.63;5114783;27;20031;-86
2022/04/18 09:12:21;;;;;;;5.05;3.97;;;;;;;9.58;53.77;101213.13;5079610;27;20038;-87
2022/04/18 09:14:48;;;;;;;6.90;3.50;;;;;;;10.04;54.10;101215.75;5127097;27;20049;-84
2022/04/18 09:17:34;;;;;;;5.30;3.30;;;;;;;10.27;51.83;101206.31;5097999;27;20015;-86
2022/04/18 09:20:12;;;;;;;14.18;4.32;;;;;;;10.29;53.06;101204.50;5112435;27;20040;-89
2022/04/18 09:22:44;;;;;;;3.53;2.97;;;;;;;10.54;51.44;101207.81;5113503;28;20016;-90
2022/04/18 09:25:16;;;;;;;5.10;3.80;;;;;;;10.61;50.84;101195.47;5083052;28;20093;-88
2022/04/18 09:27:52;;;;;;;4.35;3.42;;;;;;;10.39;50.70;101185.13;5080432;28;20024;-84
2022/04/18 09:30:17;;;;;;;4.63;3.55;;;;;;;10.33;50.55;101187.97;5094604;28;20512;-84
2022/04/18 09:33:08;;;;;;;5.07;3.55;;;;;;;10.60;49.03;101179.09;5115838;27;20031;-88
2022/04/18 09:35:34;;;;;;;3.60;3.00;;;;;;;10.96;51.59;101200.97;5099959;27;20441;-85
2022/04/18 09:38:01;;;;;;;4.00;3.17;;;;;;;11.35;52.17;101207.06;5099204;27;20103;-87
2022/04/18 09:40:26;;;;;;;3.90;3.10;;;;;;;11.52;48.88;101190.78;5083411;27;20042;-85
2022/04/18 09:42:53;;;;;;;8.32;5.93;;;;;;;11.90;48.11;101190.88;5124903;27;20027;-84
2022/04/18 09:45:18;;;;;;;4.00;2.95;;;;;;;11.81;47.10;101160.19;5117770;27;20409;-87
2022/04/18 09:47:44;;;;;;;3.88;3.28;;;;;;;11.92;46.84;101158.78;5114756;27;20023;-86
2022/04/18 09:51:04;;;;;;;3.38;2.88;;;;;;;11.82;47.09;101180.84;5110233;27;20476;-85
2022/04/18 09:53:05;;;;;;;4.38;3.10;;;;;;;11.98;47.80;101176.63;5096406;27;20053;-88
2022/04/18 09:55:31;;;;;;;4.22;2.95;;;;;;;11.76;47.32;101173.31;5135185;27;20034;-89
2022/04/18 09:58:03;;;;;;;4.97;2.90;;;;;;;11.47;47.49;101169.41;5094251;28;20024;-85
2022/04/18 10:00:28;;;;;;;3.55;2.90;;;;;;;11.48;48.42;101168.50;5095817;27;20026;-85
2022/04/18 10:02:54;;;;;;;4.40;3.40;;;;;;;11.37;48.25;101161.19;5097164;27;20066;-84
2022/04/18 10:05:19;;;;;;;5.68;4.53;;;;;;;11.43;50.61;101171.31;5096696;27;20073;-84
2022/04/18 10:07:46;;;;;;;4.25;3.35;;;;;;;11.32;51.57;101177.88;5092332;27;20090;-84
2022/04/18 10:10:12;;;;;;;4.60;3.40;;;;;;;11.20;49.02;101174.03;5100633;27;20504;-83
2022/04/18 10:12:38;;;;;;;3.20;2.65;;;;;;;11.06;46.89;101172.03;5097242;27;20019;-91
2022/04/18 10:15:04;;;;;;;3.80;3.00;;;;;;;11.01;48.62;101180.88;5079536;27;20110;-89
2022/04/18 10:17:30;;;;;;;3.55;2.80;;;;;;;10.71;48.51;101144.19;5106997;27;20058;-84
2022/04/18 10:20:16;;;;;;;3.92;3.30;;;;;;;10.59;48.78;101154.13;5117551;27;20034;-83
2022/04/18 10:22:49;;;;;;;4.47;3.10;;;;;;;10.62;48.21;101169.56;5132927;27;20030;-82
2022/04/18 10:25:59;;;;;;;4.45;3.40;;;;;;;10.76;48.73;101168.13;5132572;27;20031;-88
2022/04/18 10:28:26;;;;;;;10.18;7.75;;;;;;;10.68;49.58;101132.22;5111515;27;20492;-90
2022/04/18 10:30:58;;;;;;;6.43;4.10;;;;;;;10.82;48.13;101145.44;5096440;27;20027;-81
2022/04/18 10:33:24;;;;;;;4.30;3.28;;;;;;;10.91;49.25;101162.31;5094076;27;20034;-82
2022/04/18 10:36:02;;;;;;;4.10;3.30;;;;;;;10.75;50.41;101149.19;5095280;27;20031;-83
2022/04/18 10:38:31;;;;;;;3.65;3.15;;;;;;;10.79;49.20;101155.91;5093654;27;20472;-82
2022/04/18 10:43:58;;;;;;;4.20;3.08;;;;;;;10.74;47.99;101154.44;5101375;27;20549;-83
2022/04/18 10:46:23;;;;;;;3.80;3.20;;;;;;;10.91;47.07;101147.66;5113253;27;20084;-89
2022/04/18 10:49:26;;;;;;;3.88;2.92;;;;;;;11.57;47.74;101141.34;5096154;27;20023;-82
2022/04/18 10:51:53;;;;;;;;;;;;;;;11.77;45.37;101134.34;5096669;27;20586;-82
2022/04/18 10:54:20;;;;;;;4.57;3.13;;;;;;;11.85;45.73;101131.44;5112584;27;19911;-82
2022/04/18 10:56:52;;;;;;;3.58;2.83;;;;;;;11.80;44.16;101088.47;5113518;27;20031;-82
2022/04/18 10:59:20;;;;;;;4.00;3.10;;;;;;;12.09;43.72;101121.66;5112843;27;20088;-85
2022/04/18 11:01:46;;;;;;;4.22;2.90;;;;;;;12.24;42.78;101128.72;5092142;28;20031;-84
2022/04/18 11:04:11;;;;;;;3.33;2.70;;;;;;;12.10;43.03;101109.56;5079097;27;20425;-87
2022/04/18 11:06:37;;;;;;;3.58;2.67;;;;;;;12.24;41.57;101117.50;5107739;27;20023;-82
2022/04/18 11:09:02;;;;;;;3.60;2.75;;;;;;;12.61;41.91;101126.94;5126363;27;20500;-84
2022/04/18 11:11:54;;;;;;;3.30;2.53;;;;;;;12.73;41.05;101113.34;5133388;27;20050;-84
2022/04/18 11:14:30;;;;;;;3.85;2.90;;;;;;;12.53;43.70;101108.31;5099473;27;20067;-87
2022/04/18 11:17:00;;;;;;;3.78;2.88;;;;;;;12.53;41.80;101103.97;5110074;27;20530;-86
2022/04/18 11:19:27;;;;;;;3.97;2.90;;;;;;;12.87;42.45;101107.47;5095947;28;20027;-89
2022/04/18 11:22:00;;;;;;;3.70;3.08;;;;;;;13.04;41.19;101107.44;5096269;27;20023;-85
2022/04/18 11:24:36;;;;;;;6.35;4.10;;;;;;;13.04;40.92;101089.25;5110013;27;20027;-84
2022/04/18 11:27:03;;;;;;;4.53;2.85;;;;;;;13.25;39.51;101092.53;5112021;27;20102;-83
2022/04/18 11:29:32;;;;;;;4.68;3.40;;;;;;;13.39;39.10;101090.06;5093372;27;20041;-82
2022/04/18 11:31:58;;;;;;;4.05;2.72;;;;;;;13.32;39.66;101083.50;5113018;27;20458;-84
2022/04/18 11:34:28;;;;;;;3.42;2.70;;;;;;;13.39;37.42;101069.28;5130959;27;20031;-85
2022/04/18 11:36:57;;;;;;;3.38;2.75;;;;;;;13.67;36.95;101079.03;5126697;27;20034;-83
2022/04/18 11:39:23;;;;;;;4.07;2.65;;;;;;;13.92;37.44;101088.06;5075975;28;20034;-81
2022/04/18 11:41:49;;;;;;;3.30;2.70;;;;;;;13.86;38.12;101063.22;5100513;27;20031;-82
2022/04/18 11:44:19;;;;;;;4.50;3.08;;;;;;;14.01;38.20;101071.94;5076502;28;20070;-88
2022/04/18 11:46:45;;;;;;;3.75;2.80;;;;;;;13.96;36.46;101073.94;5115261;27;20063;-83
2022/04/18 11:49:10;;;;;;;3.03;2.70;;;;;;;13.67;36.67;101068.63;5112285;27;20031;-87
2022/04/18 11:51:46;;;;;;;3.85;2.50;;;;;;;13.41;36.58;101066.59;5112434;27;20027;-82
2022/04/18 11:54:12;;;;;;;5.90;2.90;;;;;;;13.38;37.93;101065.00;5083095;28;20077;-82
2022/04/18 11:56:40;;;;;;;3.63;2.80;;;;;;;13.24;38.63;101064.03;5121812;27;20031;-80
2022/04/18 11:59:05;;;;;;;4.25;3.20;;;;;;;12.80;39.97;101029.06;5107912;28;20023;-80
2022/04/18 12:07:02;;;;;;;3.67;3.15;;;;;;;13.36;38.92;101032.19;5115192;28;20147;-82
2022/04/18 12:09:27;;;;;;;3.58;3.00;;;;;;;13.46;38.42;101038.56;5093071;28;20058;-83
2022/04/18 12:11:54;;;;;;;3.90;3.30;;;;;;;13.61;39.65;101026.50;5075330;28;20055;-80
2022/04/18 12:14:20;;;;;;;7.63;5.55;;;;;;;13.58;38.38;101016.28;5089895;28;20080;-83
2022/04/18 12:16:46;;;;;;;172.77;120.32;;;;;;;13.46;36.29;101033.38;5080860;28;20431;-82
2022/04/18 12:19:12;;;;;;;7.85;4.90;;;;;;;13.41;35.89;101035.41;5112861;28;20031;-86
2022/04/18 12:21:38;;;;;;;4.05;3.00;;;;;;;13.38;37.54;101028.63;5112844;28;20023;-81
2022/04/18 12:24:03;;;;;;;3.65;3.00;;;;;;;13.13;39.57;101025.59;5112641;28;20408;-83
2022/04/18 12:26:36;;;;;;;3.63;3.13;;;;;;;12.75;39.30;101031.03;5093405;28;20428;-80
2022/04/18 12:29:09;;;;;;;3.60;2.85;;;;;;;12.63;38.71;101023.88;5087102;27;20035;-81
2022/04/18 12:31:40;;;;;;;3.70;2.80;;;;;;;12.61;38.73;101033.50;5098863;27;20084;-84
2022/04/18 12:34:06;;;;;;;3.60;2.88;;;;;;;12.58;38.96;101020.66;5100078;27;20381;-81
2022/04/18 12:36:35;;;;;;;4.68;3.75;;;;;;;12.59;39.77;101031.00;5113642;27;20026;-80
2022/04/18 12:39:01;;;;;;;5.28;3.85;;;;;;;12.38;40.80;101033.81;5104507;27;20019;-79
2022/04/18 12:41:38;;;;;;;4.00;3.30;;;;;;;12.37;43.03;101034.72;5114102;27;20476;-80
2022/04/18 12:44:13;;;;;;;4.68;3.13;;;;;;;12.20;40.28;101023.47;5115663;27;20019;-91
2022/04/18 12:46:39;;;;;;;3.85;3.05;;;;;;;12.29;41.94;101028.19;5119372;27;20073;-82
2022/04/18 12:49:06;;;;;;;5.07;3.15;;;;;;;12.27;39.36;101024.81;5102502;27;20536;-83
2022/04/18 12:51:37;;;;;;;5.35;3.80;;;;;;;12.22;39.99;101026.81;5093816;28;20027;-83
2022/04/18 12:54:03;;;;;;;5.25;3.30;;;;;;;12.28;40.58;101023.88;5110265;27;20035;-87
2022/04/18 12:56:29;;;;;;;5.00;3.80;;;;;;;12.25;40.27;101026.66;5099023;27;20035;-81
2022/04/18 12:58:54;;;;;;;3.70;3.05;;;;;;;12.04;38.83;101025.94;5099395;27;20031;-81
2022/04/18 13:01:25;;;;;;;3.55;2.95;;;;;;;12.02;39.57;101008.78;5115895;27;20524;-82
2022/04/18 13:03:51;;;;;;;4.18;3.35;;;;;;;11.93;41.61;101001.47;5096583;27;20023;-81
2022/04/18 13:06:26;;;;;;;5.22;3.42;;;;;;;12.00;42.02;101000.25;5102665;27;20019;-86
2022/04/18 13:09:02;;;;;;;4.00;3.33;;;;;;;11.94;42.88;101003.13;5116356;27;20487;-84
2022/04/18 13:11:44;;;;;;;5.07;3.63;;;;;;;12.00;42.15;101001.09;5100003;27;20118;-84
2022/04/18 13:14:10;;;;;;;4.80;3.80;;;;;;;11.99;43.69;101014.09;5089119;28;20039;-81
2022/04/18 13:16:36;;;;;;;4.00;3.20;;;;;;;12.12;40.91;101014.38;5112277;27;20091;-81
2022/04/18 13:19:04;;;;;;;6.82;3.72;;;;;;;12.06;40.72;101015.50;5094756;27;20042;-86
2022/04/18 13:21:30;;;;;;;4.70;3.13;;;;;;;11.94;41.92;101000.53;5110996;27;20033;-84
2022/04/18 13:23:56;;;;;;;4.63;3.15;;;;;;;11.98;42.28;101008.09;5095697;27;20065;-85
2022/04/18 13:26:22;;;;;;;5.43;3.58;;;;;;;12.09;42.18;101004.97;5095586;27;20072;-84
2022/04/18 13:28:47;;;;;;;4.20;3.17;;;;;;;12.06;41.18;101003.38;5113301;27;20446;-84
2022/04/18 13:31:13;;;;;;;3.97;3.30;;;;;;;11.95;42.41;100999.63;5096779;27;20476;-88
2022/04/18 13:33:38;;;;;;;11.38;6.50;;;;;;;11.93;41.88;101004.06;5113302;27;20023;-84
2022/04/18 13:38:48;;;;;;;6.82;4.70;;;;;;;12.01;42.69;101001.94;5117246;27;20503;-83
2022/04/18 13:41:14;;;;;;;5.57;3.38;;;;;;;11.97;42.55;100996.03;5094800;28;20027;-86
2022/04/18 13:43:40;;;;;;;9.45;6.78;;;;;;;12.00;41.78;100995.91;5080073;27;20035;-82
2022/04/18 13:46:06;;;;;;;4.63;3.42;;;;;;;11.98;42.54;101004.66;5103936;27;20107;-83
2022/04/18 13:48:33;;;;;;;3.38;2.83;;;;;;;11.91;43.38;100995.50;5135627;27;20022;-85
2022/04/18 13:50:59;;;;;;;3.80;3.08;;;;;;;11.98;43.08;101000.31;5107854;27;20019;-87
2022/04/18 13:53:25;;;;;;;7.00;4.07;;;;;;;11.98;41.92;101004.66;5101524;27;20042;-84
2022/04/18 13:55:50;;;;;;;4.72;3.10;;;;;;;11.88;40.90;100975.75;5128278;27;20031;-80
2022/04/18 13:58:16;;;;;;;9.77;6.28;;;;;;;11.89;40.80;100989.53;5091495;27;20068;-81
2022/04/18 14:00:43;;;;;;;6.10;4.28;;;;;;;11.92;41.81;100992.00;5123651;27;20031;-82
2022/04/18 14:03:09;;;;;;;5.35;3.90;;;;;;;11.75;43.40;100970.28;5127430;27;20027;-82
2022/04/18 14:05:36;;;;;;;5.20;3.22;;;;;;;11.89;40.67;100981.75;5118457;27;20034;-81
2022/04/18 14:08:02;;;;;;;6.35;3.90;;;;;;;12.01;40.82;100996.75;5114291;27;20075;-81
2022/04/18 14:10:28;;;;;;;5.35;3.15;;;;;;;11.94;40.57;100991.00;5097762;27;20091;-82
2022/04/18 14:12:53;;;;;;;4.30;3.05;;;;;;;11.87;42.10;100989.63;5097768;27;20080;-83
2022/04/18 14:20:47;;;;;;;3.90;2.85;;;;;;;11.76;41.03;100956.41;5116393;27;20038;-85
2022/04/18 14:23:13;;;;;;;4.68;3.03;;;;;;;11.71;39.44;100973.94;5093666;27;20031;-85
2022/04/18 14:25:39;;;;;;;5.53;3.22;;;;;;;11.61;40.20;100969.28;5094477;28;20046;-88
2022/04/18 14:28:05;;;;;;;4.40;3.25;;;;;;;11.71;41.07;100980.88;5061246;28;20383;-89
2022/04/18 14:30:31;;;;;;;6.65;3.53;;;;;;;11.56;41.76;100947.91;5092422;28;20126;-88
2022/04/18 14:32:56;;;;;;;4.60;3.30;;;;;;;11.69;43.50;100972.31;5111141;28;20517;-84
2022/04/18 14:35:23;;;;;;;7.65;4.25;;;;;;;11.79;42.80;100976.16;5110610;28;20024;-84
2022/04/18 14:37:48;;;;;;;4.72;3.65;;;;;;;11.76;41.75;100959.00;5090635;28;20413;-83
2022/04/18 14:40:14;;;;;;;5.93;3.28;;;;;;;11.71;42.03;100961.00;5057425;28;20076;-84
2022/04/18 14:42:39;;;;;;;5.88;3.80;;;;;;;11.88;41.06;100970.56;5074388;28;20125;-83
2022/04/18 14:45:08;;;;;;;4.70;3.30;;;;;;;11.77;41.54;100944.28;5058181;28;20032;-83
2022/04/18 14:47:34;;;;;;;6.15;3.97;;;;;;;11.75;42.68;100954.72;5091841;28;20038;-84
2022/04/18 14:50:00;;;;;;;4.22;3.30;;;;;;;11.81;41.72;100958.81;5075129;28;20028;-84
2022/04/18 14:52:27;;;;;;;4.28;3.08;;;;;;;11.85;41.82;100959.50;5076989;28;20036;-84
2022/04/18 14:54:52;;;;;;;3.95;3.33;;;;;;;11.98;42.09;100965.75;5059679;28;20169;-83
2022/04/18 14:57:18;;;;;;;4.78;3.40;;;;;;;11.86;42.65;100953.41;5077446;28;20028;-83
2022/04/18 14:59:47;;;;;;;4.70;3.45;;;;;;;11.98;42.41;100958.81;5060393;28;20441;-83
2022/04/18 15:02:13;;;;;;;8.85;7.13;;;;;;;12.15;43.16;100960.59;5077540;28;20027;-83
2022/04/18 15:04:38;;;;;;;5.25;3.70;;;;;;;12.04;42.38;100944.72;5060322;28;20035;-83
2022/04/18 15:07:04;;;;;;;6.40;4.30;;;;;;;12.08;43.25;100948.81;5060084;28;20028;-82
2022/04/18 15:09:29;;;;;;;4.00;3.22;;;;;;;12.05;41.99;100969.72;5076142;28;20028;-83
2022/04/18 15:11:55;;;;;;;5.45;3.33;;;;;;;11.85;42.52;100923.22;5093417;28;20059;-83
2022/04/18 15:14:20;;;;;;;5.53;3.08;;;;;;;12.06;41.98;100968.81;5060280;28;20034;-83
2022/04/18 15:16:46;;;;;;;4.53;3.55;;;;;;;12.18;43.11;100972.53;5076650;28;20118;-83
2022/04/18 15:19:12;;;;;;;5.03;3.47;;;;;;;12.13;42.74;100964.19;5076920;28;20047;-83
2022/04/18 15:21:37;;;;;;;4.13;3.30;;;;;;;12.12;43.13;100965.94;5076636;28;20058;-83
2022/04/18 15:24:03;;;;;;;3.95;3.35;;;;;;;12.23;42.29;100963.63;5076568;28;20027;-82
2022/04/18 15:26:29;;;;;;;4.15;3.20;;;;;;;12.26;42.96;100965.22;5076788;28;20032;-83
2022/04/18 15:28:55;;;;;;;6.97;3.47;;;;;;;12.22;42.84;100972.34;5076719;28;20035;-83
2022/04/18 15:34:04;;;;;;;16.15;7.40;;;;;;;12.13;42.51;100975.38;5081996;28;20108;-83
2022/04/18 15:36:31;;;;;;;7.65;3.80;;;;;;;12.25;44.04;100973.94;5093163;28;20484;-82
2022/04/18 15:38:56;;;;;;;12.30;6.43;;;;;;;12.08;42.55;100956.59;5076754;28;20027;-83
2022/04/18 15:41:22;;;;;;;4.13;3.35;;;;;;;12.11;42.22;100961.66;5076316;28;20476;-82
2022/04/18 15:43:47;;;;;;;3.88;3.22;;;;;;;12.01;41.49;100950.06;5076228;28;20077;-83
2022/04/18 15:46:14;;;;;;;4.60;3.75;;;;;;;11.92;42.74;100941.00;5076129;28;20046;-83
2022/04/18 15:48:41;;;;;;;6.22;4.30;;;;;;;12.03;40.92;100968.97;5076634;28;20039;-83
2022/04/18 15:51:07;;;;;;;5.15;3.38;;;;;;;12.04;39.98;100971.50;5076086;28;20049;-83
2022/04/18 15:53:32;;;;;;;5.97;3.35;;;;;;;11.98;42.82;100965.75;5093040;28;20042;-84
2022/04/18 15:55:58;;;;;;;4.65;3.08;;;;;;;12.02;42.53;100978.50;5093087;28;20084;-83
2022/04/18 15:58:23;;;;;;;4.50;3.72;;;;;;;11.96;41.82;100977.97;5076305;28;20038;-83
2022/04/18 16:00:49;;;;;;;4.00;3.08;;;;;;;11.86;41.87;100969.78;5093121;28;20027;-84
2022/04/18 16:03:15;;;;;;;3.80;3.10;;;;;;;11.78;42.16;100966.69;5093174;28;20095;-83
2022/04/18 16:05:42;;;;;;;20.42;10.13;;;;;;;11.71;41.69;100968.78;5058819;28;20059;-84